Time;durP1;ratioP1;P1;durP2;ratioP2;P2;SDS_P1;SDS_P2;PMS_P1;PMS_P2;Temp;Humidity;BMP_temperature;BMP_pressure;BME280_temperature;BME280_humidity;BME280_pressure;Samples;Min_cycle;Max_cycle;Signal;HPM_P1;HPM_P2
2021/06/28 00:00:29;;;;;;;0.60;0.60;;;20.20;99.90;;;;;;5086319;28;20221;-83
2021/06/28 00:02:55;;;;;;;0.50;0.50;;;20.20;99.90;;;;;;5091567;28;20197;-84
2021/06/28 00:05:21;;;;;;;0.87;0.50;;;20.20;99.90;;;;;;5067451;28;20295;-84
2021/06/28 00:07:48;;;;;;;0.47;0.47;;;20.10;99.90;;;;;;5074220;28;20189;-84
2021/06/28 00:10:16;;;;;;;1.23;0.73;;;19.90;99.90;;;;;;5058718;28;20177;-84
2021/06/28 00:12:42;;;;;;;0.77;0.57;;;19.80;99.90;;;;;;5058854;28;20871;-84
2021/06/28 00:15:13;;;;;;;0.83;0.60;;;19.80;99.90;;;;;;5076235;28;20330;-83
2021/06/28 00:17:40;;;;;;;0.57;0.57;;;19.70;99.90;;;;;;5057951;28;20192;-84
2021/06/28 00:20:07;;;;;;;0.67;0.67;;;19.70;99.90;;;;;;5058296;28;20192;-84
2021/06/28 00:22:33;;;;;;;1.27;0.90;;;19.70;99.90;;;;;;5057527;28;20189;-83
2021/06/28 00:24:59;;;;;;;0.67;0.60;;;19.70;99.90;;;;;;5075543;28;20201;-84
2021/06/28 00:27:25;;;;;;;0.70;0.70;;;19.70;99.90;;;;;;5075277;28;20723;-83
2021/06/28 00:29:51;;;;;;;0.77;0.67;;;19.70;99.90;;;;;;5074770;28;20180;-83
2021/06/28 00:32:17;;;;;;;0.60;0.60;;;19.60;99.90;;;;;;5054897;28;20185;-84
2021/06/28 00:34:42;;;;;;;0.80;0.70;;;19.50;99.90;;;;;;5057849;28;20215;-83
2021/06/28 00:37:08;;;;;;;0.73;0.60;;;19.40;99.90;;;;;;5057354;28;20196;-83
2021/06/28 00:39:34;;;;;;;0.50;0.50;;;19.40;99.90;;;;;;5074267;28;20745;-84
2021/06/28 00:41:59;;;;;;;0.53;0.53;;;19.50;99.90;;;;;;5074349;28;20275;-84
2021/06/28 00:44:25;;;;;;;0.47;0.47;;;19.50;99.90;;;;;;5074222;28;20216;-84
2021/06/28 00:46:51;;;;;;;0.90;0.83;;;19.50;99.90;;;;;;5073712;28;20191;-83
2021/06/28 00:49:17;;;;;;;1.20;0.60;;;19.50;99.90;;;;;;5077622;28;20557;-84
2021/06/28 00:51:42;;;;;;;0.20;0.20;;;19.50;99.90;;;;;;5077244;28;20278;-84
2021/06/28 00:54:09;;;;;;;0.47;0.47;;;19.70;99.90;;;;;;5088443;28;20219;-84
2021/06/28 00:56:34;;;;;;;0.63;0.60;;;19.80;99.90;;;;;;5056848;28;20276;-84
2021/06/28 00:59:03;;;;;;;0.80;0.47;;;19.90;99.90;;;;;;5057085;28;20318;-84
2021/06/28 01:01:29;;;;;;;0.87;0.70;;;20.00;99.90;;;;;;5056494;28;20185;-84
2021/06/28 01:03:54;;;;;;;0.50;0.50;;;20.10;99.90;;;;;;5056829;28;20208;-83
2021/06/28 01:06:20;;;;;;;0.60;0.60;;;20.20;99.90;;;;;;5074621;28;20173;-84
2021/06/28 01:08:46;;;;;;;0.47;0.47;;;20.20;99.90;;;;;;5056473;28;20173;-84
2021/06/28 01:11:13;;;;;;;0.53;0.53;;;20.20;99.90;;;;;;5056962;28;20231;-83
2021/06/28 01:13:42;;;;;;;0.30;0.30;;;20.30;99.90;;;;;;5056620;28;20205;-84
2021/06/28 01:16:09;;;;;;;0.30;0.30;;;20.40;99.90;;;;;;5056636;28;20653;-84
2021/06/28 01:18:35;;;;;;;0.70;0.70;;;20.40;99.90;;;;;;5056232;28;20604;-84
2021/06/28 01:21:01;;;;;;;0.50;0.50;;;20.40;99.90;;;;;;5073472;28;20222;-84
2021/06/28 01:23:29;;;;;;;0.37;0.37;;;20.50;99.90;;;;;;5056527;28;20707;-84
2021/06/28 01:26:07;;;;;;;0.40;0.40;;;20.40;99.90;;;;;;5056526;28;20200;-84
2021/06/28 01:28:33;;;;;;;0.77;0.73;;;20.50;99.90;;;;;;5074080;28;20180;-84
2021/06/28 01:31:01;;;;;;;0.60;0.60;;;20.50;99.90;;;;;;5074290;28;20268;-84
2021/06/28 01:33:28;;;;;;;0.50;0.50;;;20.50;99.90;;;;;;5061402;28;20194;-84
2021/06/28 01:35:54;;;;;;;0.50;0.50;;;20.60;99.90;;;;;;5076161;28;20216;-84
2021/06/28 01:38:20;;;;;;;1.40;0.60;;;20.60;99.90;;;;;;5093985;28;20203;-84
2021/06/28 01:40:47;;;;;;;0.70;0.40;;;20.60;99.90;;;;;;5071756;28;20181;-84
2021/06/28 01:43:13;;;;;;;0.37;0.37;;;20.60;99.90;;;;;;5061136;28;20200;-84
2021/06/28 01:45:39;;;;;;;0.50;0.50;;;20.40;99.90;;;;;;5073816;28;20594;-84
2021/06/28 01:48:05;;;;;;;0.67;0.40;;;20.40;99.90;;;;;;5055728;28;20177;-83
2021/06/28 01:50:33;;;;;;;4.37;0.53;;;20.40;99.90;;;;;;5062513;28;20176;-84
2021/06/28 01:52:59;;;;;;;0.90;0.50;;;20.50;99.90;;;;;;5069078;28;20216;-83
2021/06/28 01:55:25;;;;;;;0.67;0.50;;;20.60;99.90;;;;;;5058878;28;20181;-84
2021/06/28 01:57:53;;;;;;;0.43;0.43;;;20.60;99.90;;;;;;5055464;28;20222;-84
2021/06/28 02:00:33;;;;;;;0.73;0.73;;;20.60;99.90;;;;;;5055309;28;20189;-84
2021/06/28 02:03:04;;;;;;;0.90;0.90;;;20.50;99.90;;;;;;5055770;28;20232;-84
2021/06/28 02:05:36;;;;;;;0.87;0.53;;;20.40;99.90;;;;;;5073862;28;20197;-84
2021/06/28 02:08:04;;;;;;;0.90;0.90;;;20.30;99.90;;;;;;5054954;28;20174;-84
2021/06/28 02:10:30;;;;;;;0.57;0.57;;;20.10;99.90;;;;;;5056029;28;20181;-84
2021/06/28 02:12:56;;;;;;;0.60;0.60;;;19.90;99.90;;;;;;5055396;28;20204;-84
2021/06/28 02:15:24;;;;;;;0.70;0.70;;;19.80;99.90;;;;;;5073496;28;20185;-84
2021/06/28 02:17:51;;;;;;;0.60;0.50;;;20.00;99.90;;;;;;5055151;28;20192;-84
2021/06/28 02:20:18;;;;;;;0.53;0.53;;;20.20;99.90;;;;;;5073323;28;20173;-84
2021/06/28 02:22:44;;;;;;;0.50;0.50;;;19.90;99.90;;;;;;5072894;28;20231;-84
2021/06/28 02:25:11;;;;;;;0.30;0.30;;;19.90;99.90;;;;;;5055381;28;20581;-84
2021/06/28 02:27:38;;;;;;;0.73;0.73;;;19.80;99.90;;;;;;5072958;28;20181;-84
2021/06/28 02:30:06;;;;;;;0.70;0.70;;;19.70;99.90;;;;;;5073155;28;20538;-84
2021/06/28 02:32:32;;;;;;;0.50;0.50;;;19.90;99.90;;;;;;5059766;28;20184;-84
2021/06/28 02:34:58;;;;;;;0.33;0.33;;;20.10;99.90;;;;;;5093253;28;20216;-84
2021/06/28 02:37:24;;;;;;;1.60;0.70;;;20.20;99.90;;;;;;5092751;28;20244;-83
2021/06/28 02:39:49;;;;;;;1.10;0.73;;;20.30;99.90;;;;;;5093190;28;20242;-84
2021/06/28 02:42:16;;;;;;;0.93;0.57;;;20.30;99.90;;;;;;5075065;28;20699;-84
2021/06/28 02:44:42;;;;;;;1.00;0.63;;;20.30;99.90;;;;;;5065869;28;20213;-84
2021/06/28 02:47:08;;;;;;;1.13;0.70;;;20.20;99.90;;;;;;5072536;28;20478;-84
2021/06/28 02:49:34;;;;;;;0.83;0.70;;;20.20;99.90;;;;;;5054969;28;20181;-84
2021/06/28 02:51:59;;;;;;;0.50;0.50;;;20.40;99.90;;;;;;5072450;28;20177;-84
2021/06/28 02:54:25;;;;;;;0.47;0.47;;;20.40;99.90;;;;;;5045747;28;20587;-84
2021/06/28 02:56:51;;;;;;;1.13;1.00;;;20.50;99.90;;;;;;5069252;28;20596;-84
2021/06/28 02:59:17;;;;;;;0.63;0.63;;;20.40;99.90;;;;;;5054537;28;20185;-84
2021/06/28 03:01:43;;;;;;;0.60;0.60;;;20.10;99.90;;;;;;5071836;28;20188;-83
2021/06/28 03:04:09;;;;;;;0.70;0.70;;;19.80;99.90;;;;;;5072169;28;20201;-84
2021/06/28 03:06:35;;;;;;;0.60;0.60;;;19.90;99.90;;;;;;5054567;28;20775;-83
2021/06/28 03:09:00;;;;;;;0.70;0.70;;;19.80;99.90;;;;;;5054349;28;20215;-84
2021/06/28 03:11:26;;;;;;;1.00;1.00;;;19.60;99.90;;;;;;5072564;28;20181;-84
2021/06/28 03:13:52;;;;;;;0.80;0.80;;;19.30;99.90;;;;;;5072365;28;20251;-84
2021/06/28 03:16:18;;;;;;;2.00;0.73;;;19.10;99.90;;;;;;5054600;28;20207;-84
2021/06/28 03:18:44;;;;;;;0.80;0.67;;;19.00;99.90;;;;;;5054194;28;20186;-84
2021/06/28 03:21:11;;;;;;;0.70;0.70;;;18.90;99.90;;;;;;5072451;28;20182;-84
2021/06/28 03:23:38;;;;;;;0.60;0.60;;;18.90;99.90;;;;;;5072455;28;20197;-82
2021/06/28 03:26:04;;;;;;;1.20;0.90;;;18.90;99.90;;;;;;5054161;28;20224;-84
2021/06/28 03:28:30;;;;;;;0.40;0.40;;;18.90;99.90;;;;;;5054380;28;20181;-84
2021/06/28 03:30:56;;;;;;;0.40;0.40;;;18.90;99.90;;;;;;5072020;28;20173;-84
2021/06/28 03:33:22;;;;;;;0.80;0.80;;;18.90;99.90;;;;;;5060148;28;20215;-83
2021/06/28 03:35:47;;;;;;;1.23;0.40;;;18.90;99.90;;;;;;5090663;28;20188;-84
2021/06/28 03:38:13;;;;;;;0.63;0.63;;;18.80;99.90;;;;;;5074307;28;20184;-83
2021/06/28 03:40:39;;;;;;;0.50;0.50;;;18.80;99.90;;;;;;5074272;28;20740;-84
2021/06/28 03:43:07;;;;;;;0.50;0.43;;;18.90;99.90;;;;;;5073254;28;20631;-84
2021/06/28 03:45:34;;;;;;;0.50;0.50;;;19.00;99.90;;;;;;5061586;28;20205;-84
2021/06/28 03:48:00;;;;;;;0.40;0.40;;;19.20;99.90;;;;;;5071758;28;20726;-82
2021/06/28 03:50:25;;;;;;;0.37;0.37;;;19.30;99.90;;;;;;5070645;28;20189;-82
2021/06/28 03:52:51;;;;;;;0.67;0.63;;;19.60;99.90;;;;;;5070720;28;20271;-84
2021/06/28 03:55:17;;;;;;;0.60;0.53;;;19.80;99.90;;;;;;5066804;28;20599;-84
2021/06/28 03:57:43;;;;;;;0.77;0.67;;;19.80;99.90;;;;;;5074011;28;20187;-84
2021/06/28 04:00:14;;;;;;;0.70;0.63;;;19.50;99.90;;;;;;5073377;28;20560;-84
2021/06/28 04:02:41;;;;;;;0.37;0.37;;;19.30;99.90;;;;;;5074023;28;20188;-84
2021/06/28 04:05:09;;;;;;;1.20;0.73;;;19.30;99.90;;;;;;5073678;28;20595;-84
2021/06/28 04:07:35;;;;;;;0.80;0.80;;;19.10;99.90;;;;;;5072295;28;20225;-84
2021/06/28 04:10:03;;;;;;;0.73;0.73;;;19.10;99.90;;;;;;5091483;28;20259;-84
2021/06/28 04:12:29;;;;;;;1.00;0.87;;;19.20;99.90;;;;;;5073685;28;20233;-84
2021/06/28 04:14:54;;;;;;;0.47;0.47;;;19.50;99.90;;;;;;5091665;28;20652;-82
2021/06/28 04:17:20;;;;;;;0.77;0.70;;;20.20;99.90;;;;;;5091800;28;20207;-84
2021/06/28 04:19:45;;;;;;;0.63;0.63;;;20.10;99.90;;;;;;5073810;28;20314;-84
2021/06/28 04:22:11;;;;;;;0.60;0.60;;;19.70;99.90;;;;;;5073903;28;20212;-84
2021/06/28 04:24:37;;;;;;;1.00;0.90;;;19.60;99.90;;;;;;5073773;28;20222;-83
2021/06/28 04:27:03;;;;;;;0.63;0.63;;;19.80;99.90;;;;;;5058959;28;20173;-83
2021/06/28 04:29:28;;;;;;;0.80;0.80;;;20.00;99.90;;;;;;5071588;28;20181;-84
2021/06/28 04:31:54;;;;;;;0.40;0.40;;;20.20;99.90;;;;;;5071407;28;20184;-84
2021/06/28 04:34:20;;;;;;;0.60;0.60;;;20.90;99.90;;;;;;5070126;28;20331;-84
2021/06/28 04:36:46;;;;;;;0.80;0.80;;;20.80;99.90;;;;;;5053278;28;20185;-84
2021/06/28 04:39:12;;;;;;;0.43;0.43;;;20.60;99.90;;;;;;5070138;28;20192;-83
2021/06/28 04:41:37;;;;;;;0.60;0.60;;;20.40;99.90;;;;;;5071220;28;20239;-84
2021/06/28 04:44:03;;;;;;;0.87;0.73;;;20.40;99.90;;;;;;5070067;28;20209;-84
2021/06/28 04:46:29;;;;;;;0.60;0.53;;;20.70;99.90;;;;;;5071141;28;20181;-82
2021/06/28 04:48:55;;;;;;;0.50;0.50;;;21.00;99.90;;;;;;5053344;28;20281;-84
2021/06/28 04:51:21;;;;;;;0.67;0.67;;;21.10;99.90;;;;;;5071312;28;20173;-84
2021/06/28 04:53:46;;;;;;;0.60;0.60;;;21.40;99.90;;;;;;5068024;28;20237;-84
2021/06/28 04:56:12;;;;;;;0.70;0.70;;;21.60;99.90;;;;;;5066607;28;20661;-84
2021/06/28 04:58:37;;;;;;;0.77;0.37;;;21.90;99.90;;;;;;5056663;28;20243;-83
2021/06/28 05:01:03;;;;;;;0.83;0.83;;;22.10;99.90;;;;;;5056255;28;20207;-83
2021/06/28 05:03:29;;;;;;;1.23;1.13;;;22.30;99.90;;;;;;5073386;28;20197;-84
2021/06/28 05:05:54;;;;;;;0.93;0.93;;;22.40;99.90;;;;;;5074577;28;20208;-84
2021/06/28 05:08:20;;;;;;;0.97;0.70;;;22.50;99.90;;;;;;5074120;28;20180;-84
2021/06/28 05:10:46;;;;;;;1.53;0.60;;;22.60;99.90;;;;;;5056715;28;20268;-83
2021/06/28 05:13:11;;;;;;;0.57;0.47;;;22.70;99.90;;;;;;5073446;28;20347;-83
2021/06/28 05:15:37;;;;;;;0.60;0.60;;;22.70;99.90;;;;;;5056726;28;20181;-85
2021/06/28 05:18:03;;;;;;;0.77;0.63;;;22.80;99.90;;;;;;5056154;28;20208;-84
2021/06/28 05:20:29;;;;;;;0.30;0.30;;;22.90;99.90;;;;;;5056496;28;20191;-84
2021/06/28 05:22:54;;;;;;;3.13;1.87;;;22.90;99.90;;;;;;5056432;28;20209;-84
2021/06/28 05:25:20;;;;;;;2.77;0.73;;;22.80;99.90;;;;;;5056333;28;20205;-82
2021/06/28 05:27:46;;;;;;;1.37;0.87;;;22.70;99.90;;;;;;5056035;28;20674;-83
2021/06/28 05:30:15;;;;;;;1.10;1.03;;;22.50;99.90;;;;;;5073201;28;20181;-84
2021/06/28 05:32:42;;;;;;;1.80;0.90;;;22.50;99.90;;;;;;5067706;28;20649;-84
2021/06/28 05:35:09;;;;;;;1.70;0.90;;;22.40;99.90;;;;;;5080674;28;20330;-84
2021/06/28 05:37:35;;;;;;;1.53;1.43;;;22.40;99.90;;;;;;5094031;28;20591;-84
2021/06/28 05:40:01;;;;;;;1.50;1.23;;;22.50;99.90;;;;;;5077749;28;20192;-84
2021/06/28 05:42:26;;;;;;;0.60;0.60;;;22.40;99.90;;;;;;5094233;28;20173;-83
2021/06/28 05:44:52;;;;;;;1.37;1.00;;;22.60;99.90;;;;;;5071812;28;20715;-84
2021/06/28 05:47:21;;;;;;;2.20;1.27;;;22.60;99.90;;;;;;5073699;28;20189;-84
2021/06/28 05:49:48;;;;;;;1.00;1.00;;;22.80;99.90;;;;;;5073995;28;20272;-84
2021/06/28 05:52:17;;;;;;;0.47;0.47;;;22.90;99.90;;;;;;5055791;28;20188;-84
2021/06/28 05:54:43;;;;;;;0.87;0.87;;;22.90;99.90;;;;;;5045866;28;20213;-84
2021/06/28 05:57:09;;;;;;;1.03;0.73;;;23.00;99.90;;;;;;5075698;28;20184;-83
2021/06/28 05:59:35;;;;;;;1.70;1.03;;;23.00;99.90;;;;;;5095108;28;20189;-83
2021/06/28 06:02:01;;;;;;;1.10;1.00;;;23.20;99.90;;;;;;5093222;28;20188;-83
2021/06/28 06:04:27;;;;;;;0.97;0.93;;;23.40;99.90;;;;;;5075642;28;20780;-84
2021/06/28 06:06:53;;;;;;;0.80;0.80;;;23.50;99.90;;;;;;5056999;28;20173;-84
2021/06/28 06:09:18;;;;;;;0.43;0.43;;;23.80;99.90;;;;;;5070338;28;20265;-84
2021/06/28 06:11:44;;;;;;;0.80;0.80;;;23.70;99.90;;;;;;5059133;28;20678;-84
2021/06/28 06:14:10;;;;;;;1.70;1.27;;;23.70;99.90;;;;;;5061341;28;20223;-83
2021/06/28 06:16:35;;;;;;;2.03;0.97;;;23.10;99.90;;;;;;5075448;28;20196;-82
2021/06/28 06:19:01;;;;;;;0.93;0.90;;;22.80;99.90;;;;;;5094008;28;20181;-82
2021/06/28 06:21:27;;;;;;;0.80;0.80;;;22.70;99.90;;;;;;5096527;28;20576;-83
2021/06/28 06:23:53;;;;;;;2.40;1.00;;;23.20;99.90;;;;;;5091109;28;20831;-84
2021/06/28 06:26:19;;;;;;;1.27;1.17;;;23.20;99.90;;;;;;5088029;28;20259;-84
2021/06/28 06:28:45;;;;;;;2.27;1.90;;;23.10;99.90;;;;;;5074467;28;20584;-84
2021/06/28 06:31:11;;;;;;;1.07;1.07;;;22.80;99.90;;;;;;5055791;28;20177;-83
2021/06/28 06:33:37;;;;;;;1.00;1.00;;;22.70;99.90;;;;;;5073538;28;20284;-83
2021/06/28 06:36:04;;;;;;;1.20;1.17;;;22.90;99.90;;;;;;5073371;28;20180;-84
2021/06/28 06:38:29;;;;;;;0.83;0.67;;;23.00;99.90;;;;;;5055089;28;20660;-83
2021/06/28 06:40:55;;;;;;;1.20;1.07;;;23.30;99.90;;;;;;5071799;28;20211;-84
2021/06/28 06:43:21;;;;;;;1.17;1.07;;;23.80;99.90;;;;;;5055368;28;20209;-84
2021/06/28 06:45:46;;;;;;;1.20;0.83;;;24.10;99.90;;;;;;5070153;28;20707;-84
2021/06/28 06:48:12;;;;;;;0.60;0.60;;;24.30;99.90;;;;;;5074581;28;20571;-83
2021/06/28 06:50:39;;;;;;;1.40;1.07;;;24.40;99.90;;;;;;5075519;28;20204;-83
2021/06/28 06:53:05;;;;;;;2.03;1.53;;;24.70;99.90;;;;;;5092743;28;20212;-83
2021/06/28 06:55:34;;;;;;;3.10;1.40;;;24.40;99.90;;;;;;5075022;28;20565;-84
2021/06/28 06:57:59;;;;;;;1.70;1.17;;;24.20;99.90;;;;;;5072513;28;20626;-84
2021/06/28 07:00:25;;;;;;;0.80;0.80;;;24.40;99.90;;;;;;5072107;28;20209;-84
2021/06/28 07:02:51;;;;;;;5.40;1.23;;;24.90;99.90;;;;;;5054887;28;20345;-84
2021/06/28 07:05:18;;;;;;;4.70;2.07;;;24.80;99.90;;;;;;5053923;28;20577;-83
2021/06/28 07:07:44;;;;;;;3.60;1.53;;;24.20;99.90;;;;;;5052515;28;20181;-84
2021/06/28 07:10:12;;;;;;;1.57;0.87;;;24.20;99.90;;;;;;5092517;28;20195;-84
2021/06/28 07:12:39;;;;;;;1.63;1.53;;;24.20;99.90;;;;;;5092591;28;20172;-84
2021/06/28 07:15:05;;;;;;;2.00;1.10;;;24.30;99.90;;;;;;5074525;28;20625;-84
2021/06/28 07:17:31;;;;;;;1.90;1.10;;;24.50;99.90;;;;;;5072197;28;20184;-84
2021/06/28 07:19:57;;;;;;;1.43;1.20;;;24.80;99.90;;;;;;5071618;28;20234;-83
2021/06/28 07:22:23;;;;;;;0.80;0.80;;;24.90;99.90;;;;;;5072320;28;20668;-84
2021/06/28 07:24:49;;;;;;;1.03;0.57;;;25.40;99.90;;;;;;5071593;28;20209;-83
2021/06/28 07:27:15;;;;;;;1.20;1.03;;;25.80;99.90;;;;;;5053897;28;20184;-84
2021/06/28 07:29:41;;;;;;;1.47;1.10;;;25.90;99.90;;;;;;5054056;28;20185;-84
2021/06/28 07:32:07;;;;;;;1.10;0.80;;;25.90;99.90;;;;;;5070355;28;20192;-84
2021/06/28 07:34:32;;;;;;;1.10;1.00;;;26.20;99.90;;;;;;5062922;28;20671;-84
2021/06/28 07:36:58;;;;;;;0.63;0.63;;;26.40;99.90;;;;;;5073836;28;20187;-84
2021/06/28 07:39:24;;;;;;;1.00;0.93;;;25.80;99.90;;;;;;5092087;28;20184;-84
2021/06/28 07:41:52;;;;;;;1.30;1.20;;;26.10;99.90;;;;;;5074089;28;20184;-84
2021/06/28 07:44:19;;;;;;;1.93;1.10;;;25.60;99.90;;;;;;5070467;28;20204;-84
2021/06/28 07:46:46;;;;;;;0.73;0.73;;;25.80;99.90;;;;;;5087725;28;20179;-84
2021/06/28 07:49:11;;;;;;;0.73;0.73;;;26.10;99.90;;;;;;5074065;28;20181;-84
2021/06/28 07:51:37;;;;;;;2.00;1.07;;;26.40;99.90;;;;;;5092186;28;20183;-84
2021/06/28 07:54:04;;;;;;;1.00;1.00;;;26.00;99.90;;;;;;5067917;28;20204;-84
2021/06/28 07:56:30;;;;;;;1.57;0.50;;;25.70;99.90;;;;;;5053743;28;20231;-83
2021/06/28 07:58:56;;;;;;;0.90;0.80;;;26.20;99.90;;;;;;5070357;28;20185;-82
2021/06/28 08:01:22;;;;;;;0.83;0.83;;;26.60;99.90;;;;;;5053410;28;20180;-84
2021/06/28 08:03:48;;;;;;;0.70;0.60;;;26.80;99.90;;;;;;5053682;28;20881;-84
2021/06/28 08:06:16;;;;;;;1.03;1.03;;;26.80;99.90;;;;;;5053511;28;20205;-84
2021/06/28 08:08:42;;;;;;;1.37;1.07;;;27.20;99.90;;;;;;5079621;28;20172;-84
2021/06/28 08:11:09;;;;;;;0.90;0.90;;;27.10;99.90;;;;;;5091520;28;20180;-83
2021/06/28 08:13:39;;;;;;;1.30;1.30;;;27.30;99.90;;;;;;5073759;28;20235;-85
2021/06/28 08:16:05;;;;;;;2.60;0.87;;;27.40;99.90;;;;;;5091720;28;20267;-84
2021/06/28 08:18:30;;;;;;;0.50;0.50;;;27.80;99.90;;;;;;5063956;28;20208;-84
2021/06/28 08:20:56;;;;;;;1.53;0.67;;;28.00;99.90;;;;;;5053626;28;20184;-83
2021/06/28 08:23:22;;;;;;;1.37;1.03;;;28.20;99.90;;;;;;5053744;28;20205;-84
2021/06/28 08:25:47;;;;;;;0.83;0.83;;;27.50;99.90;;;;;;5053314;28;20287;-84
2021/06/28 08:28:13;;;;;;;1.20;1.20;;;27.80;99.90;;;;;;5069986;28;20600;-84
2021/06/28 08:30:40;;;;;;;1.60;1.37;;;28.10;99.90;;;;;;5056572;28;20184;-84
2021/06/28 08:33:06;;;;;;;1.77;1.67;;;27.90;99.90;;;;;;5053866;28;20197;-84
2021/06/28 08:35:32;;;;;;;0.87;0.87;;;28.10;99.90;;;;;;5073973;28;20279;-84
2021/06/28 08:37:57;;;;;;;0.50;0.50;;;28.00;99.90;;;;;;5095351;28;20616;-84
2021/06/28 08:40:23;;;;;;;0.60;0.60;;;28.20;99.90;;;;;;5095317;28;20177;-84
2021/06/28 08:42:49;;;;;;;0.67;0.67;;;28.20;99.90;;;;;;5095454;28;20231;-84
2021/06/28 08:45:15;;;;;;;0.97;0.97;;;28.10;99.90;;;;;;5081579;28;20283;-82
2021/06/28 08:47:42;;;;;;;0.67;0.67;;;28.20;99.90;;;;;;5056884;28;20173;-84
2021/06/28 08:50:09;;;;;;;0.63;0.63;;;28.50;99.90;;;;;;5075165;28;20181;-84
2021/06/28 08:52:39;;;;;;;0.50;0.50;;;28.30;99.90;;;;;;5056818;28;20197;-84
2021/06/28 08:55:06;;;;;;;1.33;0.80;;;28.40;99.90;;;;;;5067953;28;20180;-84
2021/06/28 08:57:32;;;;;;;0.98;0.80;;;28.90;99.90;;;;;;5076691;28;20180;-84
2021/06/28 08:59:58;;;;;;;0.80;0.80;;;29.40;99.90;;;;;;5076647;28;20199;-84
2021/06/28 09:02:23;;;;;;;0.93;0.93;;;29.50;99.90;;;;;;5076895;28;20188;-84
2021/06/28 09:04:57;;;;;;;1.17;0.60;;;29.50;99.90;;;;;;5094806;28;20207;-84
2021/06/28 09:07:23;;;;;;;1.40;0.82;;;29.60;99.90;;;;;;5076587;28;20314;-84
2021/06/28 09:09:49;;;;;;;0.75;0.75;;;29.40;99.90;;;;;;5057292;28;20230;-84
2021/06/28 09:12:16;;;;;;;0.68;0.68;;;29.40;99.90;;;;;;5074568;28;20218;-84
2021/06/28 09:14:50;;;;;;;2.22;1.23;;;29.10;99.90;;;;;;5074498;28;20200;-84
2021/06/28 09:17:33;;;;;;;0.82;0.80;;;29.20;99.90;;;;;;5056374;28;20273;-84
2021/06/28 09:20:19;;;;;;;0.88;0.88;;;29.00;99.90;;;;;;5045294;28;20185;-84
2021/06/28 09:22:47;;;;;;;0.40;0.40;;;29.00;99.90;;;;;;5074021;28;20173;-84
2021/06/28 09:25:37;;;;;;;0.60;0.60;;;28.90;99.90;;;;;;5074477;28;20212;-84
2021/06/28 09:28:04;;;;;;;1.20;0.80;;;29.00;99.90;;;;;;5061443;28;20207;-84
2021/06/28 09:30:30;;;;;;;0.52;0.52;;;29.00;99.90;;;;;;5056374;28;20181;-85
2021/06/28 09:33:01;;;;;;;0.43;0.43;;;29.00;99.90;;;;;;5065675;28;20247;-84
2021/06/28 09:35:30;;;;;;;0.90;0.90;;;28.90;99.90;;;;;;5087082;28;20244;-84
2021/06/28 09:38:04;;;;;;;1.10;0.77;;;29.00;99.90;;;;;;5094162;28;20176;-84
2021/06/28 09:40:29;;;;;;;0.77;0.55;;;29.30;99.90;;;;;;5093643;28;20664;-84
2021/06/28 09:42:55;;;;;;;0.75;0.65;;;29.30;99.90;;;;;;5075779;28;20215;-84
2021/06/28 09:45:22;;;;;;;0.83;0.83;;;29.20;99.90;;;;;;5068186;28;20200;-85
2021/06/28 09:47:51;;;;;;;0.57;0.57;;;29.50;99.90;;;;;;5074348;28;20173;-84
2021/06/28 09:50:23;;;;;;;0.98;0.88;;;29.80;99.90;;;;;;5094383;28;20177;-85
2021/06/28 09:52:54;;;;;;;0.70;0.65;;;30.10;99.90;;;;;;5077317;28;20220;-84
2021/06/28 09:55:20;;;;;;;0.55;0.52;;;29.80;99.90;;;;;;5060755;28;20181;-84
2021/06/28 09:58:11;;;;;;;0.50;0.50;;;30.20;99.90;;;;;;5056825;28;20219;-84
2021/06/28 10:00:47;;;;;;;0.47;0.47;;;30.30;99.90;;;;;;5074893;28;20192;-84
2021/06/28 10:03:40;;;;;;;1.63;0.70;;;30.20;99.90;;;;;;5057091;28;20204;-83
2021/06/28 10:08:50;;;;;;;0.60;0.60;;;30.10;99.90;;;;;;5083683;28;20180;-84
2021/06/28 10:11:19;;;;;;;0.52;0.50;;;30.30;99.90;;;;;;5093796;28;20180;-85
2021/06/28 10:13:49;;;;;;;0.60;0.60;;;30.50;99.90;;;;;;5075880;28;20715;-84
2021/06/28 10:16:16;;;;;;;0.63;0.63;;;30.80;99.90;;;;;;5075583;28;20195;-84
2021/06/28 10:18:42;;;;;;;1.15;1.15;;;31.00;99.90;;;;;;5081822;28;20173;-84
2021/06/28 10:21:08;;;;;;;0.65;0.65;;;31.00;99.90;;;;;;5055531;28;20192;-85
2021/06/28 10:23:37;;;;;;;4.75;0.95;;;30.70;99.90;;;;;;5055323;28;20208;-84
2021/06/28 10:26:03;;;;;;;0.95;0.50;;;30.20;99.90;;;;;;5055174;28;20236;-85
2021/06/28 10:28:30;;;;;;;1.08;0.80;;;30.50;99.90;;;;;;5072776;28;20176;-84
2021/06/28 10:30:56;;;;;;;0.80;0.73;;;30.40;99.90;;;;;;5055394;28;20277;-85
2021/06/28 10:33:23;;;;;;;1.77;0.73;;;29.80;99.90;;;;;;5068294;28;20636;-84
2021/06/28 10:35:49;;;;;;;0.70;0.70;;;30.00;99.90;;;;;;5074105;28;20192;-84
2021/06/28 10:38:15;;;;;;;0.95;0.63;;;30.20;99.90;;;;;;5092922;28;20176;-85
2021/06/28 10:40:58;;;;;;;3.42;0.88;;;29.90;99.90;;;;;;5075023;28;20188;-84
2021/06/28 10:43:34;;;;;;;0.60;0.60;;;30.20;99.90;;;;;;5075000;28;20204;-83
2021/06/28 10:46:02;;;;;;;1.42;0.95;;;30.30;99.90;;;;;;5082174;28;20203;-85
2021/06/28 10:48:30;;;;;;;0.73;0.73;;;30.30;99.90;;;;;;5092823;28;20200;-84
2021/06/28 10:51:07;;;;;;;0.80;0.80;;;30.50;99.90;;;;;;5093224;28;20679;-84
2021/06/28 10:53:32;;;;;;;0.93;0.93;;;30.50;99.90;;;;;;5072691;28;20219;-85
2021/06/28 10:55:59;;;;;;;0.57;0.50;;;30.50;99.90;;;;;;5054851;28;20185;-84
2021/06/28 10:58:32;;;;;;;1.08;0.75;;;30.80;99.90;;;;;;5054453;28;20271;-84
2021/06/28 11:01:04;;;;;;;0.50;0.50;;;31.00;99.90;;;;;;5054748;28;20185;-85
2021/06/28 11:03:35;;;;;;;1.00;1.00;;;30.70;99.90;;;;;;5054673;28;20238;-84
2021/06/28 11:06:12;;;;;;;0.88;0.88;;;31.00;99.90;;;;;;5072389;28;20193;-84
2021/06/28 11:09:00;;;;;;;0.70;0.70;;;31.20;99.90;;;;;;5079485;28;20188;-84
2021/06/28 11:11:44;;;;;;;1.23;0.77;;;31.10;99.90;;;;;;5092600;28;20724;-85
2021/06/28 11:14:30;;;;;;;0.43;0.43;;;30.50;99.90;;;;;;5074292;28;20204;-84
2021/06/28 11:17:08;;;;;;;0.50;0.50;;;29.90;99.90;;;;;;5092322;28;20206;-84
2021/06/28 11:19:49;;;;;;;0.63;0.60;;;30.50;99.90;;;;;;5056107;28;20181;-84
2021/06/28 11:22:36;;;;;;;0.40;0.38;;;29.90;99.90;;;;;;5072188;28;20169;-85
2021/06/28 11:25:08;;;;;;;1.73;0.40;;;30.40;99.90;;;;;;5054322;28;20232;-84
2021/06/28 11:27:41;;;;;;;0.57;0.57;;;30.60;99.90;;;;;;5053953;28;20181;-85
2021/06/28 11:30:30;;;;;;;1.30;0.60;;;30.90;99.90;;;;;;5072159;28;20185;-84
2021/06/28 11:33:07;;;;;;;0.70;0.70;;;31.20;99.90;;;;;;5062487;28;20277;-85
2021/06/28 11:35:41;;;;;;;1.15;1.08;;;31.40;99.90;;;;;;5074205;28;20187;-84
2021/06/28 11:38:22;;;;;;;1.02;0.95;;;30.70;99.90;;;;;;5074156;28;20193;-84
2021/06/28 11:40:57;;;;;;;0.75;0.73;;;29.80;99.90;;;;;;5074081;28;20184;-85
2021/06/28 11:43:53;;;;;;;0.82;0.82;;;29.90;99.90;;;;;;5074076;28;20211;-84
2021/06/28 11:46:47;;;;;;;0.52;0.52;;;29.70;99.90;;;;;;5033969;28;20738;-85
2021/06/28 11:49:25;;;;;;;0.80;0.80;;;29.50;99.90;;;;;;5074143;28;20233;-83
2021/06/28 11:51:52;;;;;;;0.75;0.73;;;29.60;99.90;;;;;;5073991;28;20656;-84
2021/06/28 11:54:20;;;;;;;0.57;0.57;;;29.90;99.90;;;;;;5083779;28;20225;-83
2021/06/28 11:56:50;;;;;;;0.30;0.30;;;29.80;99.90;;;;;;5053623;28;20196;-83
2021/06/28 11:59:18;;;;;;;0.63;0.63;;;30.20;99.90;;;;;;5053870;28;20188;-84
2021/06/28 12:01:44;;;;;;;0.88;0.82;;;30.70;99.90;;;;;;5053486;28;20184;-84
2021/06/28 12:04:27;;;;;;;1.25;1.10;;;30.80;99.90;;;;;;5072623;28;20207;-83
2021/06/28 12:06:55;;;;;;;0.32;0.30;;;31.30;99.90;;;;;;5057863;28;20185;-84
2021/06/28 12:09:24;;;;;;;0.63;0.63;;;31.10;99.90;;;;;;5086682;28;20196;-83
2021/06/28 12:11:59;;;;;;;0.75;0.50;;;31.40;99.90;;;;;;5077961;28;20176;-83
2021/06/28 12:14:29;;;;;;;0.63;0.63;;;31.30;99.90;;;;;;5077837;28;20614;-83
2021/06/28 12:16:55;;;;;;;1.05;1.05;;;31.20;99.90;;;;;;5077582;28;20188;-83
2021/06/28 12:19:21;;;;;;;1.42;0.63;;;31.60;99.90;;;;;;5061343;28;20371;-83
2021/06/28 12:21:47;;;;;;;0.60;0.60;;;31.40;99.90;;;;;;5074459;28;20318;-84
2021/06/28 12:24:15;;;;;;;0.90;0.90;;;31.40;99.90;;;;;;5075394;28;20242;-83
2021/06/28 12:26:58;;;;;;;0.70;0.52;;;31.40;99.90;;;;;;5057505;28;20182;-83
2021/06/28 12:29:29;;;;;;;0.40;0.40;;;31.40;99.90;;;;;;5057771;28;20593;-84
2021/06/28 12:32:28;;;;;;;1.75;0.82;;;31.00;99.90;;;;;;5075594;28;20173;-84
2021/06/28 12:34:55;;;;;;;0.68;0.68;;;30.60;99.90;;;;;;5067605;28;20197;-83
2021/06/28 12:37:30;;;;;;;0.60;0.60;;;29.80;99.90;;;;;;5078321;28;20192;-82
2021/06/28 12:40:15;;;;;;;1.05;0.95;;;30.50;99.90;;;;;;5071681;28;20211;-83
2021/06/28 12:42:43;;;;;;;0.57;0.55;;;30.00;99.90;;;;;;5076987;28;20169;-83
2021/06/28 12:45:11;;;;;;;1.55;1.08;;;30.70;99.90;;;;;;5076390;28;20692;-83
2021/06/28 12:47:38;;;;;;;0.98;0.90;;;30.80;99.90;;;;;;5075158;28;20181;-83
2021/06/28 12:50:04;;;;;;;0.35;0.35;;;31.00;99.90;;;;;;5075045;28;20230;-84
2021/06/28 12:52:34;;;;;;;0.60;0.60;;;31.40;99.90;;;;;;5056863;28;20220;-83
2021/06/28 12:55:01;;;;;;;0.50;0.50;;;31.70;99.90;;;;;;5068921;28;20214;-83